createdAt,value
2022-09-15T00:00:07.097Z,2.42
2022-09-15T00:02:33.634Z,1.92
2022-09-15T00:05:00.751Z,1.45
2022-09-15T00:07:27.489Z,2.65
2022-09-15T00:09:53.936Z,3.80
2022-09-15T00:12:20.588Z,2.33
2022-09-15T00:14:47.026Z,2.78
2022-09-15T00:17:13.494Z,2.72
2022-09-15T00:19:40.189Z,1.40
2022-09-15T00:22:07.364Z,3.15
2022-09-15T00:24:33.973Z,2.55
2022-09-15T00:27:00.424Z,2.90
2022-09-15T00:29:27.176Z,2.78
2022-09-15T00:31:53.601Z,1.92
2022-09-15T00:34:19.993Z,2.22
2022-09-15T00:36:46.448Z,1.40
2022-09-15T00:39:12.973Z,2.95
2022-09-15T00:41:40.789Z,2.35
2022-09-15T00:44:36.244Z,2.88
2022-09-15T00:47:21.551Z,1.60
2022-09-15T00:49:58.379Z,2.35
2022-09-15T00:52:49.716Z,1.85
2022-09-15T00:55:22.338Z,2.03
2022-09-15T00:57:59.633Z,3.45
2022-09-15T01:00:27.929Z,1.95
2022-09-15T01:02:56.682Z,4.13
2022-09-15T01:05:28.111Z,1.73
2022-09-15T01:10:31.723Z,3.17
2022-09-15T01:13:01.825Z,2.67
2022-09-15T01:15:55.645Z,2.28
2022-09-15T01:18:26.281Z,2.63
2022-09-15T01:21:06.979Z,2.87
2022-09-15T01:24:18.881Z,2.37
2022-09-15T01:27:06.551Z,2.80
2022-09-15T01:29:48.160Z,3.78
2022-09-15T01:32:59.588Z,2.42
2022-09-15T01:35:35.834Z,2.90
2022-09-15T01:38:20.937Z,2.30
2022-09-15T01:40:54.646Z,2.40
2022-09-15T01:43:23.783Z,2.47
2022-09-15T01:45:52.461Z,3.30
2022-09-15T01:48:25.701Z,3.58
2022-09-15T01:50:56.603Z,4.00
2022-09-15T01:53:23.856Z,3.78
2022-09-15T01:56:02.463Z,4.80
2022-09-15T01:58:28.989Z,5.00
2022-09-15T02:01:23.447Z,2.33
2022-09-15T02:03:55.478Z,3.90
2022-09-15T02:06:31.635Z,2.17
2022-09-15T02:09:02.936Z,3.08
2022-09-15T02:11:30.325Z,3.17
2022-09-15T02:14:11.319Z,3.50
2022-09-15T02:16:42.125Z,4.18
2022-09-15T02:19:11.567Z,3.72
2022-09-15T02:22:23.271Z,3.25
2022-09-15T02:25:09.585Z,3.95
2022-09-15T02:27:41.464Z,3.40
2022-09-15T02:30:11.796Z,6.60
2022-09-15T02:32:43.313Z,3.35
2022-09-15T02:37:37.841Z,3.20
2022-09-15T02:40:06.086Z,2.95
2022-09-15T02:42:32.898Z,4.13
2022-09-15T02:45:00.633Z,3.78
2022-09-15T02:47:31.957Z,3.40
2022-09-15T02:49:58.505Z,2.45
2022-09-15T02:52:26.088Z,3.78
2022-09-15T02:54:52.505Z,3.13
2022-09-15T02:57:18.904Z,4.50
2022-09-15T03:00:03.694Z,2.65
2022-09-15T03:02:30.959Z,2.47
2022-09-15T03:04:57.407Z,3.00
2022-09-15T03:07:24.802Z,2.15
2022-09-15T03:09:51.589Z,2.08
2022-09-15T03:12:17.993Z,2.97
2022-09-15T03:14:44.429Z,1.75
2022-09-15T03:17:10.961Z,2.65
2022-09-15T03:19:37.688Z,2.15
2022-09-15T03:22:04.140Z,1.55
2022-09-15T03:24:30.522Z,3.17
2022-09-15T03:26:56.929Z,3.05
2022-09-15T03:29:23.456Z,1.35
2022-09-15T03:31:49.921Z,1.30
2022-09-15T03:34:16.473Z,2.95
2022-09-15T03:36:43.095Z,2.97
2022-09-15T03:39:11.929Z,2.70
2022-09-15T03:41:38.601Z,2.42
2022-09-15T03:44:05.241Z,1.95
2022-09-15T03:46:31.673Z,2.20
2022-09-15T03:48:58.075Z,1.73
2022-09-15T03:51:25.174Z,1.13
2022-09-15T03:53:51.669Z,4.10
2022-09-15T03:56:33.100Z,2.67
2022-09-15T03:59:04.092Z,2.88
2022-09-15T04:01:30.651Z,2.67
2022-09-15T04:03:57.828Z,2.88
2022-09-15T04:06:25.955Z,2.33
2022-09-15T04:08:54.094Z,2.85
2022-09-15T04:11:22.072Z,3.42
2022-09-15T04:13:49.341Z,3.42
2022-09-15T04:16:18.405Z,1.48
2022-09-15T04:18:45.507Z,2.10
2022-09-15T04:21:14.298Z,2.95
2022-09-15T04:23:42.188Z,3.80
2022-09-15T04:26:14.159Z,5.32
2022-09-15T04:28:40.692Z,3.90
2022-09-15T04:31:10.139Z,2.95
2022-09-15T04:33:37.807Z,3.13
2022-09-15T04:36:08.080Z,5.75
2022-09-15T04:38:35.752Z,4.95
2022-09-15T04:41:03.165Z,3.28
2022-09-15T04:43:29.990Z,3.83
2022-09-15T04:45:56.721Z,3.05
2022-09-15T04:48:23.529Z,3.92
2022-09-15T04:50:50.171Z,3.53
2022-09-15T04:53:16.837Z,3.97
2022-09-15T04:55:43.336Z,4.03
2022-09-15T04:58:09.777Z,4.93
2022-09-15T05:00:42.848Z,4.57
2022-09-15T05:03:10.954Z,4.10
2022-09-15T05:05:37.429Z,7.03
2022-09-15T05:08:04.071Z,4.22
2022-09-15T05:10:30.493Z,5.00
2022-09-15T05:12:56.916Z,3.13
2022-09-15T05:15:24.113Z,3.53
2022-09-15T05:17:51.192Z,3.15
2022-09-15T05:20:18.081Z,3.50
2022-09-15T05:22:45.570Z,7.43
2022-09-15T05:25:12.141Z,5.57
2022-09-15T05:27:39.319Z,4.22
2022-09-15T05:30:34.976Z,3.65
2022-09-15T05:32:53.866Z,3.90
2022-09-15T05:35:20.287Z,6.97
2022-09-15T05:37:46.927Z,3.75
2022-09-15T05:40:13.403Z,4.72
2022-09-15T05:42:40.338Z,2.95
2022-09-15T05:45:07.528Z,5.93
2022-09-15T05:47:34.042Z,4.28
2022-09-15T05:50:00.473Z,6.03
2022-09-15T05:52:26.959Z,4.10
2022-09-15T05:54:58.324Z,7.35
2022-09-15T05:57:26.977Z,6.60
2022-09-15T05:59:53.387Z,3.25
2022-09-15T06:02:19.855Z,2.80
2022-09-15T06:04:46.276Z,4.32
2022-09-15T06:07:13.073Z,4.43
2022-09-15T06:09:39.507Z,6.13
2022-09-15T06:12:06.107Z,4.78
2022-09-15T06:14:32.505Z,4.90
2022-09-15T06:16:58.937Z,7.13
2022-09-15T06:19:25.378Z,5.32
2022-09-15T06:21:52.143Z,3.92
2022-09-15T06:24:18.557Z,5.57
2022-09-15T06:26:45.012Z,8.88
2022-09-15T06:29:12.108Z,7.18
2022-09-15T06:31:38.656Z,10.65
2022-09-15T06:34:05.397Z,7.18
2022-09-15T06:36:32.799Z,5.22
2022-09-15T06:38:59.804Z,5.45
2022-09-15T06:41:38.200Z,6.28
2022-09-15T06:44:13.441Z,5.63
2022-09-15T06:46:39.855Z,5.78
2022-09-15T06:49:06.266Z,4.80
2022-09-15T06:51:35.322Z,5.30
2022-09-15T06:54:03.059Z,4.15
2022-09-15T06:56:32.469Z,5.15
2022-09-15T07:01:30.301Z,3.90
2022-09-15T07:03:58.694Z,6.18
2022-09-15T07:06:28.191Z,5.28
2022-09-15T07:08:54.635Z,5.13
2022-09-15T07:11:21.353Z,5.63
2022-09-15T07:13:49.036Z,4.63
2022-09-15T07:16:16.754Z,5.07
2022-09-15T07:18:43.854Z,5.50
2022-09-15T07:21:16.099Z,5.50
2022-09-15T07:23:43.566Z,5.30
2022-09-15T07:26:14.082Z,5.25
2022-09-15T07:28:42.312Z,7.60
2022-09-15T07:31:10.815Z,4.63
2022-09-15T07:33:37.621Z,5.97
2022-09-15T07:36:08.698Z,4.80
2022-09-15T07:38:38.465Z,4.13
2022-09-15T07:41:11.021Z,6.13
2022-09-15T07:43:38.125Z,4.82
2022-09-15T07:46:06.069Z,4.68
2022-09-15T07:48:32.579Z,3.22
2022-09-15T07:50:59.917Z,3.35
2022-09-15T07:53:30.007Z,3.85
2022-09-15T07:55:57.349Z,5.50
2022-09-15T07:58:24.927Z,2.33
2022-09-15T08:00:51.707Z,2.95
2022-09-15T08:03:18.334Z,3.13
2022-09-15T08:05:45.748Z,3.10
2022-09-15T08:08:12.505Z,2.25
2022-09-15T08:10:41.689Z,1.17
2022-09-15T08:13:08.449Z,2.17
2022-09-15T08:15:37.273Z,1.88
2022-09-15T08:18:04.803Z,1.27
2022-09-15T08:20:31.696Z,1.70
2022-09-15T08:22:58.193Z,1.70
2022-09-15T08:25:25.003Z,1.00
2022-09-15T08:27:52.905Z,1.35
2022-09-15T08:30:19.617Z,1.77
2022-09-15T08:32:46.575Z,1.20
2022-09-15T08:35:14.736Z,1.27
2022-09-15T08:37:41.386Z,2.05
2022-09-15T08:40:16.375Z,1.55
2022-09-15T08:42:47.973Z,0.65
2022-09-15T08:45:23.177Z,1.65
2022-09-15T08:47:56.048Z,0.60
2022-09-15T08:50:29.813Z,0.70
2022-09-15T08:53:14.468Z,0.93
2022-09-15T08:55:48.075Z,1.30
2022-09-15T08:58:20.151Z,1.20
2022-09-15T09:00:48.904Z,1.42
2022-09-15T09:03:47.964Z,1.90
2022-09-15T09:06:32.494Z,0.85
2022-09-15T09:09:17.542Z,1.48
2022-09-15T09:12:06.081Z,1.40
2022-09-15T09:14:57.550Z,4.20
2022-09-15T09:18:07.244Z,1.05
2022-09-15T09:20:45.902Z,1.42
2022-09-15T09:23:15.432Z,1.60
2022-09-15T09:25:43.712Z,0.68
2022-09-15T09:28:35.457Z,0.70
2022-09-15T09:33:47.474Z,0.75
2022-09-15T09:36:14.890Z,1.15
2022-09-15T09:38:44.118Z,0.73
2022-09-15T09:41:35.410Z,0.43
2022-09-15T09:44:05.173Z,0.85
2022-09-15T09:46:31.687Z,0.90
2022-09-15T09:49:16.757Z,0.55
2022-09-15T09:52:03.589Z,3.00
2022-09-15T09:54:32.568Z,0.40
2022-09-15T09:57:14.438Z,1.27
2022-09-15T09:59:42.336Z,1.23
2022-09-15T10:02:15.776Z,0.22
2022-09-15T10:04:45.537Z,0.70
2022-09-15T10:07:13.483Z,0.50
2022-09-15T10:09:49.023Z,0.57
2022-09-15T10:12:47.816Z,1.27
2022-09-15T10:15:24.253Z,1.38
2022-09-15T10:17:51.956Z,2.42
2022-09-15T10:20:32.668Z,1.67
2022-09-15T10:23:24.059Z,3.05
2022-09-15T10:26:01.587Z,2.78
2022-09-15T10:28:28.375Z,2.75
2022-09-15T10:31:24.350Z,5.53
2022-09-15T10:33:50.838Z,4.32
2022-09-15T10:36:20.449Z,3.60
2022-09-15T10:39:06.628Z,5.65
2022-09-15T10:41:37.594Z,8.27
2022-09-15T10:44:24.008Z,6.00
2022-09-15T10:47:19.140Z,4.80
2022-09-15T10:49:55.505Z,4.72
2022-09-15T10:52:37.109Z,5.35
2022-09-15T10:55:15.751Z,6.10
2022-09-15T10:58:07.052Z,6.53
2022-09-15T11:00:50.065Z,8.52
2022-09-15T11:03:25.722Z,7.30
2022-09-15T11:06:29.233Z,5.90
2022-09-15T11:09:14.845Z,9.07
2022-09-15T11:11:59.735Z,6.85
2022-09-15T11:14:44.552Z,5.75
2022-09-15T11:17:35.525Z,6.53
2022-09-15T11:20:11.016Z,8.67
2022-09-15T11:22:49.492Z,5.82
2022-09-15T11:25:22.404Z,5.75
2022-09-15T11:27:57.620Z,6.18
2022-09-15T11:30:29.839Z,5.95
2022-09-15T11:33:13.084Z,5.85
2022-09-15T11:35:46.108Z,7.68
2022-09-15T11:38:47.836Z,8.00
2022-09-15T11:41:19.951Z,6.13
2022-09-15T11:44:07.101Z,5.78
2022-09-15T11:46:52.370Z,6.00
2022-09-15T11:49:22.954Z,8.07
2022-09-15T11:51:56.241Z,8.40
2022-09-15T11:54:34.545Z,6.78
2022-09-15T11:57:01.009Z,5.20
2022-09-15T11:59:45.698Z,9.13
2022-09-15T12:02:40.222Z,9.85
2022-09-15T12:05:43.479Z,7.30
2022-09-15T12:08:47.812Z,6.97
2022-09-15T12:11:22.285Z,7.03
2022-09-15T12:13:49.441Z,6.40
2022-09-15T12:16:17.287Z,7.10
2022-09-15T12:18:51.625Z,7.03
2022-09-15T12:21:45.995Z,6.00
2022-09-15T12:24:31.124Z,5.68
2022-09-15T12:27:00.746Z,8.57
2022-09-15T12:29:27.126Z,6.10
2022-09-15T12:32:19.847Z,6.97
2022-09-15T12:34:58.413Z,7.95
2022-09-15T12:37:29.932Z,9.13
2022-09-15T12:42:31.376Z,10.90
2022-09-15T12:45:19.603Z,7.85
2022-09-15T12:47:54.564Z,9.07
2022-09-15T12:50:36.157Z,5.20
2022-09-15T12:55:35.260Z,6.25
2022-09-15T12:58:08.713Z,5.57
2022-09-15T13:00:45.544Z,5.72
2022-09-15T13:03:49.374Z,6.88
2022-09-15T13:06:18.101Z,5.28
2022-09-15T13:08:47.092Z,5.78
2022-09-15T13:11:38.630Z,5.63
2022-09-15T13:14:08.118Z,5.45
2022-09-15T13:16:46.577Z,5.10
2022-09-15T13:19:41.214Z,4.38
2022-09-15T13:22:10.557Z,4.65
2022-09-15T13:25:02.059Z,8.77
2022-09-15T13:30:09.948Z,7.28
2022-09-15T13:32:46.445Z,8.73
2022-09-15T13:35:30.989Z,8.32
2022-09-15T13:38:17.094Z,9.40
2022-09-15T13:41:25.356Z,10.70
2022-09-15T13:44:29.137Z,7.90
2022-09-15T13:47:06.518Z,11.45
2022-09-15T13:49:54.845Z,10.05
2022-09-15T13:52:25.487Z,8.77
2022-09-15T13:55:36.683Z,8.43
2022-09-15T14:00:58.720Z,10.43
2022-09-15T14:03:39.581Z,9.68
2022-09-15T14:06:13.543Z,10.03
2022-09-15T14:08:42.827Z,8.43
2022-09-15T14:11:14.098Z,10.20
2022-09-15T14:13:48.948Z,9.35
2022-09-15T14:16:37.139Z,11.52
2022-09-15T14:19:21.391Z,9.73
2022-09-15T14:21:53.838Z,11.27
2022-09-15T14:24:29.008Z,7.68
2022-09-15T14:26:58.854Z,6.68
2022-09-15T14:29:26.826Z,6.15
2022-09-15T14:31:58.827Z,5.75
2022-09-15T14:34:29.918Z,6.35
2022-09-15T14:37:05.238Z,5.60
2022-09-15T14:39:33.501Z,5.03
2022-09-15T14:42:22.615Z,5.82
2022-09-15T14:47:40.386Z,5.65
2022-09-15T14:50:15.621Z,5.05
2022-09-15T14:52:42.176Z,4.78
2022-09-15T14:55:45.787Z,6.13
2022-09-15T14:58:35.065Z,4.95
2022-09-15T15:01:15.480Z,4.47
2022-09-15T15:03:58.296Z,3.97
2022-09-15T15:06:34.957Z,5.80
2022-09-15T15:09:13.605Z,4.32
2022-09-15T15:11:41.801Z,4.22
2022-09-15T15:14:11.350Z,3.92
2022-09-15T15:16:52.189Z,3.92
2022-09-15T15:19:38.011Z,3.72
2022-09-15T15:22:13.539Z,7.00
2022-09-15T15:24:43.137Z,3.70
2022-09-15T15:27:34.837Z,5.28
2022-09-15T15:30:31.956Z,4.00
2022-09-15T15:33:01.694Z,7.65
2022-09-15T15:35:29.941Z,5.93
2022-09-15T15:38:18.091Z,4.53
2022-09-15T15:40:45.639Z,5.68
2022-09-15T15:43:22.001Z,3.80
2022-09-15T15:45:58.592Z,5.22
2022-09-15T15:48:25.822Z,5.80
2022-09-15T15:50:52.262Z,4.50
2022-09-15T15:53:18.782Z,4.95
2022-09-15T15:55:45.565Z,6.55
2022-09-15T15:58:13.873Z,4.45
2022-09-15T16:01:00.749Z,5.95
2022-09-15T16:03:27.603Z,5.95
2022-09-15T16:05:58.118Z,8.93
2022-09-15T16:08:26.637Z,5.70
2022-09-15T16:10:55.131Z,4.32
2022-09-15T16:13:23.236Z,5.40
2022-09-15T16:15:50.040Z,4.90
2022-09-15T16:18:16.554Z,6.43
2022-09-15T16:20:43.414Z,6.18
2022-09-15T16:23:21.036Z,4.88
2022-09-15T16:25:54.198Z,5.32
2022-09-15T16:28:20.614Z,5.30
2022-09-15T16:30:47.297Z,5.47
2022-09-15T16:33:15.733Z,4.80
2022-09-15T16:35:45.907Z,5.45
2022-09-15T16:38:12.377Z,5.63
2022-09-15T16:40:38.797Z,6.20
2022-09-15T16:43:12.329Z,5.18
2022-09-15T16:45:40.819Z,4.78
2022-09-15T16:48:08.576Z,6.57
2022-09-15T16:50:35.226Z,4.88
2022-09-15T16:53:01.870Z,5.93
2022-09-15T16:55:37.198Z,5.25
2022-09-15T16:58:04.842Z,7.97
2022-09-15T17:00:33.664Z,10.32
2022-09-15T17:03:00.458Z,6.75
2022-09-15T17:05:48.728Z,6.05
2022-09-15T17:08:16.376Z,5.43
2022-09-15T17:10:43.782Z,5.03
2022-09-15T17:13:16.086Z,4.95
2022-09-15T17:15:42.810Z,5.25
2022-09-15T17:18:10.045Z,6.93
2022-09-15T17:20:39.364Z,6.30
2022-09-15T17:23:19.777Z,8.88
2022-09-15T17:25:51.883Z,10.80
2022-09-15T17:28:23.756Z,6.18
2022-09-15T17:30:52.366Z,5.28
2022-09-15T17:33:20.402Z,5.18
2022-09-15T17:35:47.667Z,5.18
2022-09-15T17:38:15.252Z,7.15
2022-09-15T17:40:42.367Z,5.35
2022-09-15T17:43:17.665Z,6.95
2022-09-15T17:45:44.492Z,5.53
2022-09-15T17:48:11.768Z,6.93
2022-09-15T17:50:39.806Z,6.15
2022-09-15T17:53:17.757Z,5.35
2022-09-15T17:55:44.397Z,5.50
2022-09-15T17:58:10.799Z,7.10
2022-09-15T18:00:40.076Z,5.95
2022-09-15T18:03:19.438Z,6.40
2022-09-15T18:05:46.391Z,6.63
2022-09-15T18:08:13.032Z,5.85
2022-09-15T18:10:39.481Z,7.72
2022-09-15T18:13:06.966Z,7.82
2022-09-15T18:15:35.232Z,10.07
2022-09-15T18:18:08.318Z,7.97
2022-09-15T18:20:36.569Z,6.25
2022-09-15T18:23:03.138Z,6.35
2022-09-15T18:25:32.733Z,6.03
2022-09-15T18:28:00.191Z,5.90
2022-09-15T18:30:29.470Z,6.15
2022-09-15T18:32:57.252Z,7.68
2022-09-15T18:35:24.245Z,9.90
2022-09-15T18:37:55.929Z,7.15
2022-09-15T18:40:23.358Z,7.70
2022-09-15T18:42:50.033Z,7.28
2022-09-15T18:45:18.036Z,8.48
2022-09-15T18:47:49.263Z,8.18
2022-09-15T18:50:17.470Z,9.20
2022-09-15T18:52:44.348Z,6.45
2022-09-15T18:55:17.022Z,6.85
2022-09-15T18:57:43.949Z,10.38
2022-09-15T19:00:13.798Z,9.73
2022-09-15T19:02:40.586Z,10.10
2022-09-15T19:05:08.231Z,7.47
2022-09-15T19:07:34.680Z,7.55
2022-09-15T19:10:01.597Z,10.77
2022-09-15T19:12:28.017Z,9.98
2022-09-15T19:14:54.476Z,12.43
2022-09-15T19:17:21.306Z,8.30
2022-09-15T19:19:47.736Z,10.88
2022-09-15T19:22:14.155Z,8.18
2022-09-15T19:24:40.570Z,13.52
2022-09-15T19:27:08.381Z,10.55
2022-09-15T19:29:36.457Z,13.65
2022-09-15T19:32:05.841Z,9.23
2022-09-15T19:34:32.674Z,10.82
2022-09-15T19:36:59.364Z,11.60
2022-09-15T19:39:25.977Z,7.68
2022-09-15T19:41:52.575Z,9.93
2022-09-15T19:44:19.090Z,10.23
2022-09-15T19:46:45.603Z,11.95
2022-09-15T19:49:12.865Z,8.27
2022-09-15T19:51:39.573Z,7.43
2022-09-15T19:54:06.798Z,7.35
2022-09-15T19:56:34.340Z,9.38
2022-09-15T19:59:01.030Z,6.65
2022-09-15T20:01:29.317Z,7.35
2022-09-15T20:03:56.913Z,7.07
2022-09-15T20:06:27.614Z,6.93
2022-09-15T20:08:59.983Z,7.32
2022-09-15T20:11:27.657Z,8.50
2022-09-15T20:13:54.972Z,7.68
2022-09-15T20:16:22.901Z,8.50
2022-09-15T20:18:51.459Z,8.38
2022-09-15T20:21:39.092Z,8.55
2022-09-15T20:24:12.736Z,6.05
2022-09-15T20:26:39.165Z,9.18
2022-09-15T20:29:05.542Z,8.75
2022-09-15T20:31:33.073Z,7.90
2022-09-15T20:34:01.509Z,6.75
2022-09-15T20:36:33.061Z,8.95
2022-09-15T20:41:28.194Z,8.77
2022-09-15T20:43:55.536Z,13.13
2022-09-15T20:46:23.453Z,6.93
2022-09-15T20:48:51.346Z,7.10
2022-09-15T20:51:20.541Z,5.93
2022-09-15T20:53:49.035Z,8.68
2022-09-15T20:56:17.050Z,9.32
2022-09-15T20:58:43.677Z,10.23
2022-09-15T21:01:15.532Z,8.05
2022-09-15T21:03:44.149Z,8.38
2022-09-15T21:06:15.534Z,8.02
2022-09-15T21:08:42.195Z,8.55
2022-09-15T21:11:13.325Z,8.13
2022-09-15T21:13:41.277Z,8.80
2022-09-15T21:16:10.197Z,10.40
2022-09-15T21:18:39.007Z,6.53
2022-09-15T21:21:08.841Z,8.23
2022-09-15T21:23:37.929Z,8.68
2022-09-15T21:26:09.654Z,7.88
2022-09-15T21:28:36.226Z,6.28
2022-09-15T21:31:10.844Z,9.23
2022-09-15T21:33:38.094Z,6.78
2022-09-15T21:36:18.049Z,8.32
2022-09-15T21:38:44.733Z,8.57
2022-09-15T21:41:20.802Z,6.97
2022-09-15T21:43:48.266Z,7.68
2022-09-15T21:46:17.179Z,10.88
2022-09-15T21:48:45.067Z,6.03
2022-09-15T21:51:14.247Z,6.93
2022-09-15T21:53:42.245Z,6.78
2022-09-15T21:56:10.474Z,7.35
2022-09-15T21:58:42.691Z,7.70
2022-09-15T22:01:18.848Z,8.02
2022-09-15T22:03:52.827Z,6.97
2022-09-15T22:06:21.518Z,7.70
2022-09-15T22:08:48.253Z,6.40
2022-09-15T22:11:14.737Z,9.52
2022-09-15T22:13:43.466Z,6.10
2022-09-15T22:16:16.728Z,7.20
2022-09-15T22:18:43.880Z,9.68
2022-09-15T22:21:16.069Z,6.80
2022-09-15T22:23:43.548Z,8.73
2022-09-15T22:26:12.937Z,6.90
2022-09-15T22:28:39.794Z,6.15
2022-09-15T22:31:10.166Z,8.13
2022-09-15T22:33:37.642Z,6.65
2022-09-15T22:36:05.957Z,6.28
2022-09-15T22:38:32.370Z,7.88
2022-09-15T22:41:04.974Z,7.53
2022-09-15T22:43:31.551Z,6.03
2022-09-15T22:45:58.048Z,7.10
2022-09-15T22:48:24.583Z,7.85
2022-09-15T22:50:50.954Z,8.00
2022-09-15T22:53:17.376Z,7.95
2022-09-15T22:55:43.786Z,6.53
2022-09-15T22:58:10.388Z,6.68
2022-09-15T23:00:39.795Z,7.10
2022-09-15T23:03:06.874Z,8.77
2022-09-15T23:05:34.386Z,6.68
2022-09-15T23:08:00.978Z,7.55
2022-09-15T23:10:28.127Z,8.70
2022-09-15T23:12:54.521Z,6.60
2022-09-15T23:15:20.921Z,7.68
2022-09-15T23:17:47.361Z,6.38
2022-09-15T23:20:13.787Z,8.63
2022-09-15T23:22:40.197Z,7.47
2022-09-15T23:25:07.070Z,7.65
2022-09-15T23:27:33.558Z,5.95
2022-09-15T23:30:00.015Z,6.47
2022-09-15T23:32:26.433Z,8.57
2022-09-15T23:34:53.321Z,6.78
2022-09-15T23:37:19.747Z,7.45
2022-09-15T23:39:46.208Z,5.95
2022-09-15T23:42:16.764Z,5.95
2022-09-15T23:44:45.077Z,6.78
2022-09-15T23:47:11.449Z,8.02
2022-09-15T23:49:37.877Z,6.20
2022-09-15T23:52:04.280Z,6.50
2022-09-15T23:54:30.762Z,11.10
2022-09-15T23:56:57.224Z,6.80
2022-09-15T23:59:23.647Z,7.45
